Time,TemperatureF,DewpointF,PressureIn,WindDirection,WindDirectionDegrees,WindSpeedMPH,WindSpeedGustMPH,Humidity,HourlyPrecipIn,Conditions,Clouds,dailyrainin,SoftwareType,DateUTC
2013-05-17 00:02:00,53.8,32.0,29.77,ENE,62,3.0,12.0,44,0.00,,,0.00,weatherlink.com 1.10,2013-05-17 04:02:00,
2013-05-17 00:17:00,52.9,33.0,29.78,East,96,2.0,12.0,48,0.00,,,0.00,weatherlink.com 1.10,2013-05-17 04:17:00,
2013-05-17 00:32:00,51.9,34.0,29.78,NNE,29,2.0,10.0,51,0.00,,,0.00,weatherlink.com 1.10,2013-05-17 04:32:00,
2013-05-17 00:47:00,51.5,35.0,29.78,North,360,4.0,12.0,54,0.00,,,0.00,weatherlink.com 1.10,2013-05-17 04:47:00,
2013-05-17 01:02:00,50.5,36.0,29.78,West,273,3.0,10.0,57,0.00,,,0.00,weatherlink.com 1.10,2013-05-17 05:02:00,
2013-05-17 01:17:00,49.5,36.0,29.79,North,355,4.0,9.0,59,0.00,,,0.00,weatherlink.com 1.10,2013-05-17 05:17:00,
2013-05-17 01:32:00,48.8,37.0,29.79,NE,51,3.0,15.0,63,0.00,,,0.00,weatherlink.com 1.10,2013-05-17 05:32:00,
2013-05-17 01:47:00,48.6,37.0,29.79,NW,316,5.0,16.0,65,0.00,,,0.00,weatherlink.com 1.10,2013-05-17 05:47:00,
2013-05-17 02:02:00,47.9,38.0,29.80,NNE,24,3.0,11.0,68,0.00,,,0.00,weatherlink.com 1.10,2013-05-17 06:02:00,
2013-05-17 02:17:00,47.0,38.0,29.80,West,271,5.0,12.0,70,0.00,,,0.00,weatherlink.com 1.10,2013-05-17 06:17:00,
2013-05-17 02:32:00,46.4,38.0,29.80,NNE,16,3.0,10.0,72,0.00,,,0.00,weatherlink.com 1.10,2013-05-17 06:32:00,
2013-05-17 02:47:00,45.9,38.0,29.81,NNW,348,3.0,8.0,73,0.00,,,0.00,weatherlink.com 1.10,2013-05-17 06:47:00,
2013-05-17 03:02:00,45.1,38.0,29.82,ENE,67,1.0,8.0,75,0.00,,,0.00,weatherlink.com 1.10,2013-05-17 07:02:00,
2013-05-17 03:17:00,44.5,37.0,29.82,North,360,2.0,9.0,76,0.00,,,0.00,weatherlink.com 1.10,2013-05-17 07:17:00,
2013-05-17 03:32:00,43.9,37.0,29.83,NW,319,7.0,12.0,77,0.00,,,0.00,weatherlink.com 1.10,2013-05-17 07:32:00,
2013-05-17 03:47:00,43.7,37.0,29.83,NNW,333,0.0,10.0,77,0.00,,,0.00,weatherlink.com 1.10,2013-05-17 07:47:00,
2013-05-17 04:02:00,43.2,37.0,29.83,NNW,333,8.0,10.0,78,0.00,,,0.00,weatherlink.com 1.10,2013-05-17 08:02:00,
2013-05-17 04:18:00,42.8,37.0,29.84,NNW,338,2.0,9.0,79,0.00,,,0.00,weatherlink.com 1.10,2013-05-17 08:18:00,
2013-05-17 04:33:00,42.3,36.0,29.85,NNE,19,3.0,9.0,79,0.00,,,0.00,weatherlink.com 1.10,2013-05-17 08:33:00,
2013-05-17 04:48:00,41.8,36.0,29.86,NW,324,3.0,9.0,80,0.00,,,0.00,weatherlink.com 1.10,2013-05-17 08:48:00,
2013-05-17 05:03:00,41.4,36.0,29.86,NNW,336,4.0,10.0,80,0.00,,,0.00,weatherlink.com 1.10,2013-05-17 09:03:00,
2013-05-17 05:18:00,41.1,36.0,29.86,NNW,345,3.0,9.0,81,0.00,,,0.00,weatherlink.com 1.10,2013-05-17 09:18:00,
2013-05-17 05:33:00,40.5,35.0,29.88,NNW,335,1.0,11.0,82,0.00,,,0.00,weatherlink.com 1.10,2013-05-17 09:33:00,
2013-05-17 05:48:00,40.4,36.0,29.88,North,349,5.0,10.0,83,0.00,,,0.00,weatherlink.com 1.10,2013-05-17 09:48:00,
2013-05-17 06:03:00,40.4,36.0,29.89,NNE,25,6.0,11.0,83,0.00,,,0.00,weatherlink.com 1.10,2013-05-17 10:03:00,
2013-05-17 06:18:00,40.9,36.0,29.90,NE,36,4.0,11.0,81,0.00,,,0.00,weatherlink.com 1.10,2013-05-17 10:18:00,
2013-05-17 06:33:00,41.0,36.0,29.92,NE,36,5.0,12.0,81,0.00,,,0.00,weatherlink.com 1.10,2013-05-17 10:33:00,
2013-05-17 06:48:00,40.7,35.0,29.92,NE,34,5.0,8.0,81,0.00,,,0.00,weatherlink.com 1.10,2013-05-17 10:48:00,
2013-05-17 07:03:00,40.9,36.0,29.92,North,11,7.0,10.0,81,0.00,,,0.00,weatherlink.com 1.10,2013-05-17 11:03:00,
2013-05-17 07:18:00,41.3,36.0,29.92,North,355,11.0,14.0,80,0.00,,,0.00,weatherlink.com 1.10,2013-05-17 11:18:00,
2013-05-17 07:33:00,42.0,36.0,29.93,NNW,329,3.0,11.0,79,0.00,,,0.00,weatherlink.com 1.10,2013-05-17 11:33:00,
2013-05-17 07:48:00,42.8,36.0,29.94,NNW,348,7.0,13.0,77,0.00,,,0.00,weatherlink.com 1.10,2013-05-17 11:48:00,
2013-05-17 08:03:00,43.4,36.0,29.95,North,355,5.0,14.0,75,0.00,,,0.00,weatherlink.com 1.10,2013-05-17 12:03:00,
2013-05-17 08:18:00,43.8,36.0,29.94,North,9,10.0,13.0,74,0.00,,,0.00,weatherlink.com 1.10,2013-05-17 12:18:00,
2013-05-17 08:33:00,44.3,37.0,29.96,NW,321,10.0,13.0,74,0.00,,,0.00,weatherlink.com 1.10,2013-05-17 12:33:00,
2013-05-17 08:48:00,45.4,37.0,29.96,NW,325,2.0,11.0,73,0.00,,,0.00,weatherlink.com 1.10,2013-05-17 12:48:00,
2013-05-17 09:03:00,46.7,37.0,29.96,North,355,4.0,17.0,68,0.00,,,0.00,weatherlink.com 1.10,2013-05-17 13:03:00,
2013-05-17 09:18:00,47.2,37.0,29.96,West,277,4.0,12.0,67,0.00,,,0.00,weatherlink.com 1.10,2013-05-17 13:18:00,
2013-05-17 09:33:00,47.9,37.0,29.97,North,5,3.0,13.0,65,0.00,,,0.00,weatherlink.com 1.10,2013-05-17 13:33:00,
2013-05-17 09:48:00,48.3,37.0,29.98,NNW,338,8.0,11.0,66,0.00,,,0.00,weatherlink.com 1.10,2013-05-17 13:48:00,
2013-05-17 10:03:00,49.1,37.0,29.98,North,360,8.0,13.0,64,0.00,,,0.00,weatherlink.com 1.10,2013-05-17 14:03:00,
2013-05-17 10:18:00,50.0,38.0,29.98,NNE,14,6.0,13.0,64,0.00,,,0.00,weatherlink.com 1.10,2013-05-17 14:18:00,
2013-05-17 10:33:00,51.1,38.0,29.99,NNW,329,3.0,13.0,61,0.00,,,0.00,weatherlink.com 1.10,2013-05-17 14:33:00,
2013-05-17 10:48:00,51.5,38.0,29.99,WNW,291,5.0,13.0,60,0.00,,,0.00,weatherlink.com 1.10,2013-05-17 14:48:00,
2013-05-17 11:03:00,52.5,38.0,29.99,NW,321,5.0,13.0,58,0.00,,,0.00,weatherlink.com 1.10,2013-05-17 15:03:00,
2013-05-17 11:18:00,53.7,36.0,30.00,WNW,290,7.0,11.0,52,0.00,,,0.00,weatherlink.com 1.10,2013-05-17 15:18:00,
2013-05-17 11:33:00,54.1,37.0,30.00,NW,322,3.0,11.0,53,0.00,,,0.00,weatherlink.com 1.10,2013-05-17 15:33:00,
2013-05-17 11:48:00,54.8,37.0,30.00,West,266,6.0,16.0,51,0.00,,,0.00,weatherlink.com 1.10,2013-05-17 15:48:00,
2013-05-17 12:04:00,55.2,38.0,30.00,NW,312,4.0,14.0,52,0.00,,,0.00,weatherlink.com 1.10,2013-05-17 16:04:00,
2013-05-17 12:19:00,55.1,37.0,30.00,SW,236,2.0,12.0,51,0.00,,,0.00,weatherlink.com 1.10,2013-05-17 16:19:00,
2013-05-17 12:34:00,55.6,38.0,30.00,NW,309,4.0,14.0,51,0.00,,,0.00,weatherlink.com 1.10,2013-05-17 16:34:00,
2013-05-17 12:49:00,56.0,38.0,30.00,WNW,297,6.0,12.0,51,0.00,,,0.00,weatherlink.com 1.10,2013-05-17 16:49:00,
2013-05-17 13:04:00,56.6,38.0,30.00,WNW,289,3.0,14.0,50,0.00,,,0.00,weatherlink.com 1.10,2013-05-17 17:04:00,
2013-05-17 13:19:00,57.5,39.0,30.01,NE,51,4.0,10.0,50,0.00,,,0.00,weatherlink.com 1.10,2013-05-17 17:19:00,
2013-05-17 13:34:00,57.1,38.0,30.01,NW,306,2.0,14.0,49,0.00,,,0.00,weatherlink.com 1.10,2013-05-17 17:34:00,
2013-05-17 13:49:00,57.2,38.0,30.01,NW,323,2.0,12.0,49,0.00,,,0.00,weatherlink.com 1.10,2013-05-17 17:49:00,
2013-05-17 14:04:00,58.1,39.0,30.01,WNW,288,3.0,14.0,49,0.00,,,0.00,weatherlink.com 1.10,2013-05-17 18:04:00,
2013-05-17 14:19:00,58.5,39.0,30.02,SSE,167,3.0,12.0,48,0.00,,,0.00,weatherlink.com 1.10,2013-05-17 18:19:00,
2013-05-17 14:34:00,57.8,38.0,30.01,North,10,3.0,12.0,48,0.00,,,0.00,weatherlink.com 1.10,2013-05-17 18:34:00,
2013-05-17 14:49:00,58.2,39.0,30.01,NW,319,5.0,10.0,49,0.00,,,0.00,weatherlink.com 1.10,2013-05-17 18:49:00,
2013-05-17 15:04:00,58.1,38.0,30.02,WNW,300,4.0,15.0,48,0.00,,,0.00,weatherlink.com 1.10,2013-05-17 19:04:00,
2013-05-17 15:19:00,58.1,38.0,30.02,WNW,298,3.0,10.0,47,0.00,,,0.00,weatherlink.com 1.10,2013-05-17 19:19:00,
2013-05-17 15:49:00,58.6,38.0,30.01,WNW,288,4.0,13.0,46,0.00,,,0.00,weatherlink.com 1.10,2013-05-17 19:49:00,
2013-05-17 16:04:00,59.5,39.0,30.01,SE,128,4.0,12.0,46,0.00,,,0.00,weatherlink.com 1.10,2013-05-17 20:04:00,
2013-05-17 16:19:00,59.6,39.0,30.02,North,350,6.0,12.0,47,0.00,,,0.00,weatherlink.com 1.10,2013-05-17 20:19:00,
2013-05-17 16:34:00,60.3,37.0,30.01,NNE,24,2.0,12.0,43,0.00,,,0.00,weatherlink.com 1.10,2013-05-17 20:34:00,
2013-05-17 16:49:00,60.3,39.0,30.02,ENE,62,5.0,13.0,45,0.00,,,0.00,weatherlink.com 1.10,2013-05-17 20:49:00,
2013-05-17 17:04:00,60.7,38.0,30.02,NNW,341,1.0,13.0,43,0.00,,,0.00,weatherlink.com 1.10,2013-05-17 21:04:00,
2013-05-17 17:19:00,60.4,38.0,30.03,WNW,290,2.0,8.0,44,0.00,,,0.00,weatherlink.com 1.10,2013-05-17 21:19:00,
2013-05-17 17:34:00,60.5,37.0,30.03,NNW,334,2.0,10.0,42,0.00,,,0.00,weatherlink.com 1.10,2013-05-17 21:34:00,
2013-05-17 17:49:00,60.7,37.0,30.03,NNE,15,2.0,13.0,41,0.00,,,0.00,weatherlink.com 1.10,2013-05-17 21:49:00,
2013-05-17 18:04:00,60.5,37.0,30.03,NNW,336,9.0,14.0,42,0.00,,,0.00,weatherlink.com 1.10,2013-05-17 22:04:00,
2013-05-17 18:19:00,60.6,38.0,30.04,NNE,12,2.0,8.0,44,0.00,,,0.00,weatherlink.com 1.10,2013-05-17 22:19:00,
2013-05-17 18:34:00,59.2,36.0,30.04,North,360,2.0,9.0,43,0.00,,,0.00,weatherlink.com 1.10,2013-05-17 22:34:00,
2013-05-17 18:49:00,57.6,37.0,30.05,NNW,332,1.0,9.0,46,0.00,,,0.00,weatherlink.com 1.10,2013-05-17 22:49:00,
2013-05-17 19:04:00,56.9,37.0,30.05,NW,323,8.0,9.0,47,0.00,,,0.00,weatherlink.com 1.10,2013-05-17 23:04:00,
2013-05-17 19:19:00,56.2,38.0,30.06,West,270,2.0,5.0,51,0.00,,,0.00,weatherlink.com 1.10,2013-05-17 23:19:00,
2013-05-17 19:34:00,54.5,38.0,30.07,WSW,238,2.0,4.0,54,0.00,,,0.00,weatherlink.com 1.10,2013-05-17 23:34:00,
2013-05-17 19:49:00,53.1,39.0,30.08,WSW,247,1.0,3.0,59,0.00,,,0.00,weatherlink.com 1.10,2013-05-17 23:49:00,
2013-05-17 20:04:00,51.3,39.0,30.09,WSW,247,0.0,1.0,64,0.00,,,0.00,weatherlink.com 1.10,2013-05-18 00:04:00,
2013-05-17 20:19:00,49.8,39.0,30.09,WSW,247,0.0,2.0,67,0.00,,,0.00,weatherlink.com 1.10,2013-05-18 00:19:00,
2013-05-17 20:34:00,49.2,39.0,30.11,WSW,247,0.0,0.0,69,0.00,,,0.00,weatherlink.com 1.10,2013-05-18 00:34:00,
2013-05-17 20:49:00,48.6,39.0,30.11,WSW,247,0.0,1.0,70,0.00,,,0.00,weatherlink.com 1.10,2013-05-18 00:49:00,
2013-05-17 21:04:00,48.2,38.0,30.12,WSW,247,0.0,1.0,69,0.00,,,0.00,weatherlink.com 1.10,2013-05-18 01:04:00,
2013-05-17 21:19:00,48.2,39.0,30.13,NNE,30,0.0,3.0,70,0.00,,,0.00,weatherlink.com 1.10,2013-05-18 01:19:00,
2013-05-17 21:35:00,48.6,39.0,30.13,North,5,0.0,2.0,70,0.00,,,0.00,weatherlink.com 1.10,2013-05-18 01:35:00,
2013-05-17 21:50:00,48.1,39.0,30.14,North,5,1.0,3.0,70,0.00,,,0.00,weatherlink.com 1.10,2013-05-18 01:50:00,
2013-05-17 22:05:00,47.6,39.0,30.14,North,5,0.0,2.0,71,0.00,,,0.00,weatherlink.com 1.10,2013-05-18 02:05:00,
2013-05-17 22:20:00,46.6,38.0,30.15,North,5,0.0,0.0,73,0.00,,,0.00,weatherlink.com 1.10,2013-05-18 02:20:00,
2013-05-17 22:35:00,45.9,38.0,30.15,North,5,0.0,0.0,75,0.00,,,0.00,weatherlink.com 1.10,2013-05-18 02:35:00,
2013-05-17 22:50:00,45.8,39.0,30.15,North,5,0.0,0.0,76,0.00,,,0.00,weatherlink.com 1.10,2013-05-18 02:50:00,
2013-05-17 23:05:00,46.2,38.0,30.16,North,5,2.0,2.0,73,0.00,,,0.00,weatherlink.com 1.10,2013-05-18 03:05:00,
2013-05-17 23:20:00,46.1,38.0,30.16,North,5,0.0,2.0,74,0.00,,,0.00,weatherlink.com 1.10,2013-05-18 03:20:00,
2013-05-17 23:35:00,45.3,38.0,30.16,North,5,0.0,0.0,76,0.00,,,0.00,weatherlink.com 1.10,2013-05-18 03:35:00,
2013-05-17 23:50:00,44.6,38.0,30.17,North,5,0.0,0.0,77,0.00,,,0.00,weatherlink.com 1.10,2013-05-18 03:50:00,